createdAt,value
2023-03-22T00:00:40.343Z,0.40
2023-03-22T00:03:14.429Z,0.50
2023-03-22T00:05:48.637Z,0.40
2023-03-22T00:08:22.416Z,0.50
2023-03-22T00:10:56.734Z,0.40
2023-03-22T00:13:33.863Z,0.40
2023-03-22T00:16:18.826Z,0.63
2023-03-22T00:18:53.097Z,0.47
2023-03-22T00:21:26.904Z,0.45
2023-03-22T00:24:02.650Z,0.40
2023-03-22T00:26:35.917Z,0.40
2023-03-22T00:29:11.183Z,0.45
2023-03-22T00:31:48.506Z,0.32
2023-03-22T00:34:23.304Z,0.38
2023-03-22T00:36:58.229Z,0.40
2023-03-22T00:39:35.929Z,0.50
2023-03-22T00:42:11.519Z,0.40
2023-03-22T00:44:48.968Z,0.40
2023-03-22T00:47:24.827Z,0.40
2023-03-22T00:50:01.077Z,0.40
2023-03-22T00:52:36.631Z,0.40
2023-03-22T00:55:09.735Z,0.40
2023-03-22T00:57:41.778Z,0.60
2023-03-22T01:00:18.825Z,0.30
2023-03-22T01:02:55.021Z,0.50
2023-03-22T01:05:31.599Z,0.30
2023-03-22T01:08:10.108Z,0.40
2023-03-22T01:10:48.933Z,0.40
2023-03-22T01:13:23.160Z,0.50
2023-03-22T01:15:58.996Z,0.47
2023-03-22T01:18:33.183Z,0.50
2023-03-22T01:21:06.914Z,0.50
2023-03-22T01:23:41.230Z,0.45
2023-03-22T01:26:16.160Z,0.30
2023-03-22T01:28:49.966Z,0.32
2023-03-22T01:31:26.121Z,0.40
2023-03-22T01:34:00.541Z,0.57
2023-03-22T01:36:34.657Z,0.50
2023-03-22T01:39:11.967Z,0.50
2023-03-22T01:41:46.773Z,0.30
2023-03-22T01:44:23.142Z,0.50
2023-03-22T01:46:57.865Z,0.50
2023-03-22T01:49:38.125Z,0.40
2023-03-22T01:52:16.230Z,0.40
2023-03-22T01:54:53.749Z,0.47
2023-03-22T01:57:27.015Z,0.40
2023-03-22T02:00:00.316Z,0.40
2023-03-22T02:02:37.095Z,0.40
2023-03-22T02:05:11.403Z,0.50
2023-03-22T02:07:48.176Z,0.50
2023-03-22T02:10:24.001Z,0.50
2023-03-22T02:13:11.941Z,0.50
2023-03-22T02:15:50.595Z,0.40
2023-03-22T02:18:38.417Z,0.35
2023-03-22T02:21:42.479Z,0.52
2023-03-22T02:25:05.215Z,0.40
2023-03-22T02:27:59.775Z,0.60
2023-03-22T02:31:00.010Z,0.45
2023-03-22T02:34:05.602Z,0.35
2023-03-22T02:37:08.537Z,0.47
2023-03-22T02:39:52.888Z,0.60
2023-03-22T02:42:36.679Z,0.50
2023-03-22T02:45:18.529Z,0.50
2023-03-22T02:48:00.337Z,0.50
2023-03-22T02:50:37.519Z,0.40
2023-03-22T02:53:18.331Z,0.50
2023-03-22T02:55:57.598Z,0.40
2023-03-22T02:58:32.893Z,0.35
2023-03-22T03:01:10.713Z,0.50
2023-03-22T03:03:49.968Z,0.40
2023-03-22T03:06:30.104Z,0.32
2023-03-22T03:09:07.308Z,0.50
2023-03-22T03:11:42.037Z,0.35
2023-03-22T03:14:24.446Z,0.50
2023-03-22T03:17:09.819Z,0.43
2023-03-22T03:19:53.801Z,0.60
2023-03-22T03:22:43.984Z,0.40
2023-03-22T03:25:24.775Z,0.55
2023-03-22T03:28:07.262Z,0.50
2023-03-22T03:30:44.515Z,0.40
2023-03-22T03:33:21.196Z,0.50
2023-03-22T03:35:58.850Z,0.50
2023-03-22T03:38:35.746Z,0.40
2023-03-22T03:41:11.616Z,0.40
2023-03-22T03:43:47.888Z,0.60
2023-03-22T03:46:20.826Z,0.47
2023-03-22T03:48:55.976Z,0.40
2023-03-22T03:51:30.111Z,0.40
2023-03-22T03:54:05.042Z,0.50
2023-03-22T03:56:37.361Z,0.50
2023-03-22T03:59:11.801Z,0.70
2023-03-22T04:01:50.875Z,0.45
2023-03-22T04:04:27.241Z,0.60
2023-03-22T04:07:03.496Z,0.60
2023-03-22T04:09:39.142Z,0.60
2023-03-22T04:12:12.537Z,0.60
2023-03-22T04:14:46.341Z,0.68
2023-03-22T04:17:18.305Z,0.82
2023-03-22T04:19:57.432Z,0.70
2023-03-22T04:22:35.224Z,0.57
2023-03-22T04:25:09.392Z,0.60
2023-03-22T04:27:41.796Z,0.63
2023-03-22T04:30:19.628Z,0.70
2023-03-22T04:32:52.033Z,0.80
2023-03-22T04:35:24.689Z,0.73
2023-03-22T04:37:58.424Z,0.80
2023-03-22T04:40:33.707Z,0.82
2023-03-22T04:43:05.162Z,0.80
2023-03-22T04:45:40.433Z,0.80
2023-03-22T04:48:13.087Z,0.90
2023-03-22T04:50:48.313Z,0.80
2023-03-22T04:53:20.786Z,0.60
2023-03-22T04:55:53.818Z,0.82
2023-03-22T04:58:25.839Z,0.80
2023-03-22T05:00:59.957Z,0.80
2023-03-22T05:03:31.668Z,0.90
2023-03-22T05:06:05.165Z,0.90
2023-03-22T05:08:37.470Z,1.00
2023-03-22T05:11:11.252Z,0.70
2023-03-22T05:13:43.537Z,0.90
2023-03-22T05:16:17.910Z,1.00
2023-03-22T05:18:50.847Z,0.88
2023-03-22T05:21:23.322Z,0.90
2023-03-22T05:23:55.183Z,0.98
2023-03-22T05:26:27.935Z,1.00
2023-03-22T05:29:00.223Z,1.02
2023-03-22T05:31:35.999Z,1.00
2023-03-22T05:34:08.752Z,1.00
2023-03-22T05:36:41.020Z,1.00
2023-03-22T05:39:13.100Z,1.00
2023-03-22T05:41:45.314Z,1.00
2023-03-22T05:44:17.577Z,1.08
2023-03-22T05:46:54.668Z,1.00
2023-03-22T05:49:31.898Z,1.10
2023-03-22T05:52:05.432Z,0.80
2023-03-22T05:54:37.200Z,1.20
2023-03-22T05:57:12.496Z,0.90
2023-03-22T05:59:45.271Z,0.90
2023-03-22T06:02:19.077Z,1.10
2023-03-22T06:04:51.327Z,1.13
2023-03-22T06:07:23.607Z,1.02
2023-03-22T06:09:55.885Z,0.93
2023-03-22T06:12:30.091Z,0.80
2023-03-22T06:15:05.453Z,0.90
2023-03-22T06:17:39.759Z,0.90
2023-03-22T06:20:13.004Z,1.00
2023-03-22T06:22:45.315Z,0.80
2023-03-22T06:25:17.767Z,1.02
2023-03-22T06:27:51.848Z,0.90
2023-03-22T06:30:23.648Z,1.02
2023-03-22T06:32:57.864Z,0.77
2023-03-22T06:35:30.608Z,0.80
2023-03-22T06:38:03.328Z,0.70
2023-03-22T06:40:36.633Z,0.82
2023-03-22T06:43:07.866Z,0.70
2023-03-22T06:45:41.698Z,0.70
2023-03-22T06:48:15.193Z,0.70
2023-03-22T06:50:47.775Z,0.70
2023-03-22T06:53:19.890Z,0.77
2023-03-22T06:55:53.774Z,0.80
2023-03-22T06:58:28.107Z,0.63
2023-03-22T07:00:59.917Z,0.73
2023-03-22T07:03:34.150Z,0.70
2023-03-22T07:06:06.288Z,0.63
2023-03-22T07:08:38.338Z,0.50
2023-03-22T07:11:10.825Z,0.45
2023-03-22T07:13:42.590Z,0.60
2023-03-22T07:16:16.730Z,0.60
2023-03-22T07:18:52.483Z,0.60
2023-03-22T07:21:25.175Z,0.70
2023-03-22T07:23:56.775Z,0.60
2023-03-22T07:26:28.764Z,0.63
2023-03-22T07:29:00.565Z,0.50
2023-03-22T07:31:32.521Z,0.60
2023-03-22T07:34:06.090Z,0.63
2023-03-22T07:36:39.403Z,0.50
2023-03-22T07:39:11.649Z,0.60
2023-03-22T07:41:43.456Z,0.90
2023-03-22T07:44:18.248Z,0.60
2023-03-22T07:46:49.533Z,0.50
2023-03-22T07:49:23.394Z,0.60
2023-03-22T07:51:54.636Z,0.55
2023-03-22T07:54:33.981Z,0.50
2023-03-22T07:57:08.934Z,0.60
2023-03-22T07:59:45.329Z,0.47
2023-03-22T08:02:17.088Z,0.40
2023-03-22T08:04:53.173Z,0.52
2023-03-22T08:07:26.649Z,0.50
2023-03-22T08:10:00.156Z,0.57
2023-03-22T08:12:33.408Z,0.60
2023-03-22T08:15:04.574Z,0.40
2023-03-22T08:17:35.770Z,0.40
2023-03-22T08:20:15.583Z,0.50
2023-03-22T08:22:47.324Z,0.40
2023-03-22T08:25:19.644Z,0.40
2023-03-22T08:27:54.396Z,0.30
2023-03-22T08:30:28.745Z,0.50
2023-03-22T08:33:00.917Z,0.50
2023-03-22T08:35:33.806Z,0.40
2023-03-22T08:38:04.802Z,0.40
2023-03-22T08:40:37.323Z,0.40
2023-03-22T08:43:08.227Z,0.47
2023-03-22T08:45:39.594Z,0.50
2023-03-22T08:50:45.284Z,0.35
2023-03-22T08:53:17.094Z,0.30
2023-03-22T08:59:53.099Z,0.30
2023-03-22T09:02:25.097Z,0.30
2023-03-22T09:04:57.282Z,0.35
2023-03-22T09:07:32.534Z,0.30
2023-03-22T09:10:03.951Z,0.40
2023-03-22T09:12:35.491Z,0.20
2023-03-22T09:15:10.282Z,0.30
2023-03-22T09:17:47.830Z,0.40
2023-03-22T09:20:19.903Z,0.40
2023-03-22T09:22:52.713Z,0.30
2023-03-22T09:25:23.634Z,0.20
2023-03-22T09:27:56.120Z,0.40
2023-03-22T09:30:27.403Z,0.30
2023-03-22T09:33:00.551Z,0.22
2023-03-22T09:35:32.981Z,0.20
2023-03-22T09:38:07.379Z,0.20
2023-03-22T09:40:41.290Z,0.32
2023-03-22T09:43:16.432Z,0.45
2023-03-22T09:45:52.461Z,0.30
2023-03-22T09:48:31.516Z,0.30
2023-03-22T09:51:04.528Z,0.30
2023-03-22T09:53:36.901Z,0.30
2023-03-22T09:56:14.154Z,0.40
2023-03-22T09:58:49.722Z,0.20
2023-03-22T10:01:31.917Z,0.40
2023-03-22T10:04:36.882Z,0.20
2023-03-22T10:07:14.930Z,0.30
2023-03-22T10:09:55.724Z,0.20
2023-03-22T10:12:32.181Z,0.28
2023-03-22T10:15:08.982Z,0.20
2023-03-22T10:17:46.254Z,0.22
2023-03-22T10:20:31.581Z,0.20
2023-03-22T10:23:05.331Z,0.40
2023-03-22T10:25:42.819Z,0.25
2023-03-22T10:28:22.186Z,0.30
2023-03-22T10:30:58.176Z,0.20
2023-03-22T10:33:37.626Z,0.30
2023-03-22T10:36:12.067Z,0.32
2023-03-22T10:38:49.273Z,0.47
2023-03-22T10:41:27.309Z,0.20
2023-03-22T10:44:00.383Z,0.30
2023-03-22T10:46:35.646Z,0.20
2023-03-22T10:49:07.630Z,0.20
2023-03-22T10:51:42.763Z,0.10
2023-03-22T10:54:16.934Z,0.20
2023-03-22T10:56:49.363Z,0.40
2023-03-22T10:59:45.066Z,0.20
2023-03-22T11:02:26.142Z,0.30
2023-03-22T11:04:59.470Z,0.28
2023-03-22T11:07:39.408Z,0.20
2023-03-22T11:10:23.776Z,0.30
2023-03-22T11:13:15.475Z,0.20
2023-03-22T11:15:54.835Z,0.30
2023-03-22T11:18:27.843Z,0.30
2023-03-22T11:21:04.151Z,0.20
2023-03-22T11:23:40.445Z,0.20
2023-03-22T11:26:14.390Z,0.30
2023-03-22T11:28:51.810Z,0.30
2023-03-22T11:31:28.298Z,0.20
2023-03-22T11:34:05.401Z,0.20
2023-03-22T11:39:22.211Z,0.22
2023-03-22T11:41:58.719Z,0.20
2023-03-22T11:44:38.586Z,0.25
2023-03-22T11:47:14.391Z,0.30
2023-03-22T11:49:49.901Z,0.30
2023-03-22T11:52:23.528Z,0.20
2023-03-22T11:54:56.739Z,0.30
2023-03-22T11:57:30.087Z,0.40
2023-03-22T12:00:10.801Z,0.40
2023-03-22T12:02:47.401Z,0.30
2023-03-22T12:05:23.962Z,0.32
2023-03-22T12:08:01.711Z,0.40
2023-03-22T12:10:38.337Z,0.40
2023-03-22T12:13:16.175Z,0.45
2023-03-22T12:15:53.036Z,0.30
2023-03-22T12:18:29.910Z,0.30
2023-03-22T12:21:04.593Z,0.30
2023-03-22T12:23:37.298Z,0.40
2023-03-22T12:26:15.181Z,0.20
2023-03-22T12:28:53.229Z,0.32
2023-03-22T12:31:33.796Z,0.30
2023-03-22T12:34:08.573Z,0.40
2023-03-22T12:36:46.336Z,0.35
2023-03-22T12:39:25.684Z,0.20
2023-03-22T12:42:00.888Z,0.30
2023-03-22T12:44:38.975Z,0.30
2023-03-22T12:47:21.848Z,0.25
2023-03-22T12:49:58.711Z,0.25
2023-03-22T12:52:44.703Z,0.30
2023-03-22T12:55:27.640Z,0.30
2023-03-22T12:57:59.133Z,0.20
2023-03-22T13:00:36.238Z,0.40
2023-03-22T13:03:11.188Z,0.22
2023-03-22T13:05:42.508Z,0.30
2023-03-22T13:08:13.254Z,0.20
2023-03-22T13:10:59.976Z,0.20
2023-03-22T13:13:50.669Z,0.30
2023-03-22T13:16:49.936Z,0.20
2023-03-22T13:19:34.889Z,0.20
2023-03-22T13:22:23.433Z,0.20
2023-03-22T13:25:10.775Z,0.30
2023-03-22T13:27:45.646Z,0.30
2023-03-22T13:30:26.646Z,0.10
2023-03-22T13:33:04.573Z,0.20
2023-03-22T13:35:48.236Z,0.30
2023-03-22T13:38:23.530Z,0.10
2023-03-22T13:41:03.444Z,0.20
2023-03-22T13:43:36.867Z,0.20
2023-03-22T13:47:00.872Z,0.30
2023-03-22T13:49:50.850Z,0.30
2023-03-22T13:52:38.292Z,0.15
2023-03-22T13:55:33.638Z,0.28
2023-03-22T13:58:06.369Z,0.20
2023-03-22T14:00:45.928Z,0.20
2023-03-22T14:03:28.788Z,0.20
2023-03-22T14:06:16.573Z,0.20
2023-03-22T14:08:52.866Z,0.20
2023-03-22T14:11:31.586Z,0.30
2023-03-22T14:14:07.668Z,0.20
2023-03-22T14:16:45.587Z,0.10
2023-03-22T14:19:21.752Z,0.20
